Time;durP1;ratioP1;P1;durP2;ratioP2;P2;SDS_P1;SDS_P2;PMS_P1;PMS_P2;Temp;Humidity;BMP_temperature;BMP_pressure;BME280_temperature;BME280_humidity;BME280_pressure;Samples;Min_cycle;Max_cycle;Signal;HPM_P1;HPM_P2
2021/12/04 00:01:46;;;;;;;;;;;;;;;;;;4897532;29;849;-62
2021/12/04 00:04:11;;;;;;;;;;;;;;;;;;4897163;28;835;-62
2021/12/04 00:06:39;;;;;;;;;;;;;;;;;;4897363;29;1076;-62
2021/12/04 00:09:05;;;;;;;;;;;;;;;;;;4897068;28;877;-62
2021/12/04 00:11:32;;;;;;;;;;;;;;;;;;4897509;29;889;-62
2021/12/04 00:13:57;;;;;;;;;;;;;;;;;;4896519;28;1947;-62
2021/12/04 00:16:22;;;;;;;;;;;;;;;;;;4896542;29;1055;-62
2021/12/04 00:18:47;;;;;;;;;;;;;;;;;;4895839;29;1152;-62
2021/12/04 00:21:13;;;;;;;;;;;;;;;;;;4896852;28;992;-62
2021/12/04 00:23:38;;;;;;;;;;;;;;;;;;4896818;28;909;-62
2021/12/04 00:26:04;;;;;;;;;;;;;;;;;;4895987;28;818;-62
2021/12/04 00:28:29;;;;;;;;;;;;;;;;;;4894825;28;1412;-63
2021/12/04 00:30:55;;;;;;;;;;;;;;;;;;4895962;28;814;-63
2021/12/04 00:33:24;;;;;;;;;;;;;;;;;;4896237;29;965;-63
2021/12/04 00:35:58;;;;;;;;;;;;;;;;;;4895706;29;1898;-62
2021/12/04 00:51:36;;;;;;;;;;;;;;;;;;4895382;29;822;-62
2021/12/04 00:54:01;;;;;;;;;;;;;;;;;;4895246;28;1970;-62
2021/12/04 00:56:27;;;;;;;;;;;;;;;;;;4895516;28;1040;-62
2021/12/04 00:58:52;;;;;;;;;;;;;;;;;;4894215;28;1180;-63
2021/12/04 01:01:18;;;;;;;;;;;;;;;;;;4895754;29;873;-63
2021/12/04 01:03:43;;;;;;;;;;;;;;;;;;4895681;29;850;-62
2021/12/04 01:06:09;;;;;;;;;;;;;;;;;;4895057;28;1199;-63
2021/12/04 01:08:34;;;;;;;;;;;;;;;;;;4895804;28;980;-63
2021/12/04 01:11:02;;;;;;;;;;;;;;;;;;4895276;28;897;-63
2021/12/04 01:13:27;;;;;;;;;;;;;;;;;;4895519;28;867;-63
2021/12/04 01:15:52;;;;;;;;;;;;;;;;;;4895317;28;1967;-63
2021/12/04 01:18:18;;;;;;;;;;;;;;;;;;4895440;28;818;-63
2021/12/04 01:20:43;;;;;;;;;;;;;;;;;;4910240;28;842;-63
2021/12/04 01:23:09;;;;;;;;;;;;;;;;;;4894989;29;838;-63
2021/12/04 01:25:38;;;;;;;;;;;;;;;;;;4895651;28;850;-63
2021/12/04 01:28:04;;;;;;;;;;;;;;;;;;4893821;28;984;-63
2021/12/04 01:30:30;;;;;;;;;;;;;;;;;;4895554;28;830;-63
2021/12/04 01:32:55;;;;;;;;;;;;;;;;;;4895439;29;838;-63
2021/12/04 01:35:20;;;;;;;;;;;;;;;;;;4895393;28;1894;-63
2021/12/04 01:37:45;;;;;;;;;;;;;;;;;;4895811;28;1023;-63
2021/12/04 01:40:11;;;;;;;;;;;;;;;;;;4895115;28;782;-63
2021/12/04 01:42:36;;;;;;;;;;;;;;;;;;4895188;29;1233;-63
2021/12/04 01:45:03;;;;;;;;;;;;;;;;;;4894963;29;905;-63
2021/12/04 01:47:28;;;;;;;;;;;;;;;;;;4905403;29;1632;-62
2021/12/04 01:49:55;;;;;;;;;;;;;;;;;;4913248;29;1233;-62
2021/12/04 01:52:20;;;;;;;;;;;;;;;;;;4913543;29;1018;-63
2021/12/04 01:54:46;;;;;;;;;;;;;;;;;;4913950;29;1907;-63
2021/12/04 01:57:15;;;;;;;;;;;;;;;;;;4912881;29;1217;-63
2021/12/04 01:59:41;;;;;;;;;;;;;;;;;;4927653;29;1177;-63
2021/12/04 02:02:06;;;;;;;;;;;;;;;;;;4912907;29;1170;-63
2021/12/04 02:04:31;;;;;;;;;;;;;;;;;;4911589;29;1172;-63
2021/12/04 02:06:57;;;;;;;;;;;;;;;;;;4913195;29;1049;-63
2021/12/04 02:09:22;;;;;;;;;;;;;;;;;;4912163;29;889;-63
2021/12/04 02:11:47;;;;;;;;;;;;;;;;;;4914081;29;902;-63
2021/12/04 02:14:13;;;;;;;;;;;;;;;;;;4913272;29;1911;-63
2021/12/04 02:16:38;;;;;;;;;;;;;;;;;;4913857;29;841;-62
2021/12/04 02:19:04;;;;;;;;;;;;;;;;;;4913184;29;912;-63
2021/12/04 02:21:31;;;;;;;;;;;;;;;;;;4927856;29;1068;-63
2021/12/04 02:23:56;;;;;;;;;;;;;;;;;;4912970;29;842;-62
2021/12/04 02:26:21;;;;;;;;;;;;;;;;;;4913234;29;972;-62
2021/12/04 02:28:46;;;;;;;;;;;;;;;;;;4913730;29;606;-62
2021/12/04 02:31:12;;;;;;;;;;;;;;;;;;4927300;29;819;-62
2021/12/04 02:33:38;;;;;;;;;;;;;;;;;;4913111;29;775;-62
2021/12/04 02:36:05;;;;;;;;;;;;;;;;;;4912748;29;1907;-62
2021/12/04 02:38:30;;;;;;;;;;;;;;;;;;4913298;29;845;-62
2021/12/04 02:40:56;;;;;;;;;;;;;;;;;;4912937;29;889;-63
2021/12/04 02:43:22;;;;;;;;;;;;;;;;;;4913139;29;873;-62
2021/12/04 02:45:47;;;;;;;;;;;;;;;;;;4913699;28;790;-63
2021/12/04 02:48:13;;;;;;;;;;;;;;;;;;4912492;29;1101;-62
2021/12/04 02:50:39;;;;;;;;;;;;;;;;;;4912680;29;847;-63
2021/12/04 02:53:04;;;;;;;;;;;;;;;;;;4912774;29;822;-62
2021/12/04 02:55:29;;;;;;;;;;;;;;;;;;4913006;29;1923;-62
2021/12/04 02:57:55;;;;;;;;;;;;;;;;;;4912944;29;814;-62
2021/12/04 03:00:22;;;;;;;;;;;;;;;;;;4926744;29;909;-62
2021/12/04 03:02:48;;;;;;;;;;;;;;;;;;4912825;29;878;-63
2021/12/04 03:05:13;;;;;;;;;;;;;;;;;;4911091;29;1189;-62
2021/12/04 03:07:40;;;;;;;;;;;;;;;;;;4912313;29;1207;-63
2021/12/04 03:10:07;;;;;;;;;;;;;;;;;;4912342;29;826;-63
2021/12/04 03:12:33;;;;;;;;;;;;;;;;;;4912695;29;900;-63
2021/12/04 03:14:58;;;;;;;;;;;;;;;;;;4912062;29;1935;-63
2021/12/04 03:17:25;;;;;;;;;;;;;;;;;;4911176;29;1377;-63
2021/12/04 03:19:51;;;;;;;;;;;;;;;;;;4912517;29;885;-62
2021/12/04 03:22:18;;;;;;;;;;;;;;;;;;4912809;29;814;-63
2021/12/04 03:24:44;;;;;;;;;;;;;;;;;;4912642;29;1243;-63
2021/12/04 03:27:10;;;;;;;;;;;;;;;;;;4912418;29;819;-62
2021/12/04 03:29:41;;;;;;;;;;;;;;;;;;4927023;29;818;-63
2021/12/04 03:43:07;;;;;;;;;;;;;;;;;;4924909;29;710;-63
2021/12/04 03:45:35;;;;;;;;;;;;;;;;;;4912460;29;835;-63
2021/12/04 03:50:44;;;;;;;;;;;;;;;;;;4913012;29;800;-63
2021/12/04 03:53:09;;;;;;;;;;;;;;;;;;4912540;29;887;-63
2021/12/04 03:55:35;;;;;;;;;;;;;;;;;;4910741;29;1906;-63
2021/12/04 03:58:00;;;;;;;;;;;;;;;;;;4912073;29;834;-62
2021/12/04 04:00:28;;;;;;;;;;;;;;;;;;4926658;29;767;-62
2021/12/04 04:02:55;;;;;;;;;;;;;;;;;;4912433;29;868;-62
2021/12/04 04:05:20;;;;;;;;;;;;;;;;;;4925958;29;951;-63
2021/12/04 04:07:46;;;;;;;;;;;;;;;;;;4910792;29;1198;-62
2021/12/04 04:10:12;;;;;;;;;;;;;;;;;;4911164;29;964;-63
2021/12/04 04:12:37;;;;;;;;;;;;;;;;;;4911897;29;861;-63
2021/12/04 04:15:02;;;;;;;;;;;;;;;;;;4911601;29;1910;-63
2021/12/04 04:17:31;;;;;;;;;;;;;;;;;;4911858;29;854;-62
2021/12/04 04:19:56;;;;;;;;;;;;;;;;;;4912109;29;862;-62
2021/12/04 04:22:22;;;;;;;;;;;;;;;;;;4911822;29;886;-62
2021/12/04 04:24:47;;;;;;;;;;;;;;;;;;4912170;29;869;-62
2021/12/04 04:27:13;;;;;;;;;;;;;;;;;;4913501;29;767;-62
2021/12/04 04:29:38;;;;;;;;;;;;;;;;;;4915485;29;862;-63
2021/12/04 04:32:03;;;;;;;;;;;;;;;;;;4915091;29;830;-62
2021/12/04 04:34:31;;;;;;;;;;;;;;;;;;4915250;29;1907;-62
2021/12/04 04:37:49;;;;;;;;;;;;;;;;;;4915312;29;1153;-62
2021/12/04 05:14:49;;;;;;;;;;;;;;;;;;4914424;29;1911;-62
2021/12/04 05:17:27;;;;;;;;;;;;;;;;;;4914175;29;885;-62
2021/12/04 05:19:53;;;;;;;;;;;;;;;;;;4914560;29;1021;-62
2021/12/04 05:22:20;;;;;;;;;;;;;;;;;;4914508;29;882;-62
2021/12/04 05:24:45;;;;;;;;;;;;;;;;;;4915145;29;838;-62
2021/12/04 05:27:10;;;;;;;;;;;;;;;;;;4914461;29;1028;-62
2021/12/04 05:29:36;;;;;;;;;;;;;;;;;;4914617;29;933;-63
2021/12/04 05:32:03;;;;;;;;;;;;;;;;;;4914457;29;853;-62
2021/12/04 05:34:29;;;;;;;;;;;;;;;;;;4914073;29;1982;-62
2021/12/04 05:36:55;;;;;;;;;;;;;;;;;;4914126;29;838;-62
2021/12/04 05:39:20;;;;;;;;;;;;;;;;;;4914123;29;815;-62
2021/12/04 05:41:45;;;;;;;;;;;;;;;;;;4914614;29;1071;-62
2021/12/04 05:44:12;;;;;;;;;;;;;;;;;;4914125;29;859;-63
2021/12/04 05:46:45;;;;;;;;;;;;;;;;;;4914059;29;1218;-62
2021/12/04 05:49:25;;;;;;;;;;;;;;;;;;4913835;29;996;-62
2021/12/04 05:52:06;;;;;;;;;;;;;;;;;;4914531;29;877;-63
2021/12/04 05:57:06;;;;;;;;;;;;;;;;;;4914596;29;913;-63
2021/12/04 05:59:32;;;;;;;;;;;;;;;;;;4914145;29;921;-63
2021/12/04 06:01:57;;;;;;;;;;;;;;;;;;4914623;29;854;-62
2021/12/04 06:04:22;;;;;;;;;;;;;;;;;;4913986;29;922;-62
2021/12/04 06:06:47;;;;;;;;;;;;;;;;;;4928564;29;1352;-62
2021/12/04 06:09:13;;;;;;;;;;;;;;;;;;4913805;29;936;-62
2021/12/04 06:11:38;;;;;;;;;;;;;;;;;;4914076;29;850;-62
2021/12/04 06:14:03;;;;;;;;;;;;;;;;;;4912894;29;1915;-62
2021/12/04 06:16:29;;;;;;;;;;;;;;;;;;4913985;29;934;-63
2021/12/04 06:18:55;;;;;;;;;;;;;;;;;;4913774;29;834;-63
2021/12/04 06:24:04;;;;;;;;;;;;;;;;;;4913747;29;681;-62
2021/12/04 06:26:30;;;;;;;;;;;;;;;;;;4912559;29;914;-62
2021/12/04 06:28:56;;;;;;;;;;;;;;;;;;4901771;28;1221;-62
2021/12/04 06:31:21;;;;;;;;;;;;;;;;;;4897928;28;1166;-62
2021/12/04 06:33:46;;;;;;;;;;;;;;;;;;4912733;29;1157;-62
2021/12/04 06:36:11;;;;;;;;;;;;;;;;;;4912762;29;1899;-63
2021/12/04 06:38:37;;;;;;;;;;;;;;;;;;4912886;29;804;-63
2021/12/04 06:41:02;;;;;;;;;;;;;;;;;;4913164;29;829;-63
2021/12/04 06:43:28;;;;;;;;;;;;;;;;;;4912769;29;806;-63
2021/12/04 06:46:01;;;;;;;;;;;;;;;;;;4912878;29;869;-62
2021/12/04 06:48:36;;;;;;;;;;;;;;;;;;4912966;29;830;-63
2021/12/04 06:51:15;;;;;;;;;;;;;;;;;;4912213;29;818;-62
2021/12/04 06:56:12;;;;;;;;;;;;;;;;;;4912123;29;1944;-62
2021/12/04 06:58:38;;;;;;;;;;;;;;;;;;4912535;29;872;-63
2021/12/04 07:01:04;;;;;;;;;;;;;;;;;;4912619;29;873;-62
2021/12/04 07:03:29;;;;;;;;;;;;;;;;;;4926811;28;759;-62
2021/12/04 07:05:55;;;;;;;;;;;;;;;;;;4912247;29;1214;-62
2021/12/04 07:08:20;;;;;;;;;;;;;;;;;;4912282;29;830;-62
2021/12/04 07:10:45;;;;;;;;;;;;;;;;;;4912736;29;980;-62
2021/12/04 07:13:12;;;;;;;;;;;;;;;;;;4912621;29;1008;-62
2021/12/04 07:15:37;;;;;;;;;;;;;;;;;;4912326;29;1978;-62
2021/12/04 07:18:03;;;;;;;;;;;;;;;;;;4911329;29;1255;-63
2021/12/04 07:20:29;;;;;;;;;;;;;;;;;;4912434;29;787;-62
2021/12/04 07:22:55;;;;;;;;;;;;;;;;;;4912934;29;818;-63
2021/12/04 07:25:20;;;;;;;;;;;;;;;;;;4912349;29;838;-63
2021/12/04 07:27:46;;;;;;;;;;;;;;;;;;4913012;29;830;-63
2021/12/04 07:30:12;;;;;;;;;;;;;;;;;;4912556;29;941;-62
2021/12/04 07:32:38;;;;;;;;;;;;;;;;;;4912282;29;992;-63
2021/12/04 07:35:04;;;;;;;;;;;;;;;;;;4912736;29;1941;-63
2021/12/04 07:37:30;;;;;;;;;;;;;;;;;;4912496;29;814;-63
2021/12/04 07:39:55;;;;;;;;;;;;;;;;;;4912314;29;818;-63
2021/12/04 07:42:20;;;;;;;;;;;;;;;;;;4912047;29;894;-63
2021/12/04 07:44:46;;;;;;;;;;;;;;;;;;4912806;29;1068;-65
2021/12/04 07:47:11;;;;;;;;;;;;;;;;;;4912502;29;933;-64
2021/12/04 07:49:39;;;;;;;;;;;;;;;;;;4912398;29;778;-65
2021/12/04 07:52:05;;;;;;;;;;;;;;;;;;4912705;29;870;-65
2021/12/04 07:54:31;;;;;;;;;;;;;;;;;;4912168;29;1958;-65
2021/12/04 07:56:56;;;;;;;;;;;;;;;;;;4912039;29;826;-65
2021/12/04 07:59:23;;;;;;;;;;;;;;;;;;4911597;29;1024;-65
2021/12/04 08:01:49;;;;;;;;;;;;;;;;;;4911908;29;1390;-65
2021/12/04 08:04:14;;;;;;;;;;;;;;;;;;4929989;29;901;-66
2021/12/04 08:06:39;;;;;;;;;;;;;;;;;;4914686;29;1085;-65
2021/12/04 08:09:05;;;;;;;;;;;;;;;;;;4915448;29;818;-65
2021/12/04 08:11:30;;;;;;;;;;;;;;;;;;4914872;29;812;-65
2021/12/04 08:13:56;;;;;;;;;;;;;;;;;;4914684;29;1976;-64
2021/12/04 08:16:24;;;;;;;;;;;;;;;;;;4928901;29;955;-64
2021/12/04 08:18:53;;;;;;;;;;;;;;;;;;4928948;29;896;-64
2021/12/04 08:21:19;;;;;;;;;;;;;;;;;;4914007;29;1299;-64
2021/12/04 08:23:45;;;;;;;;;;;;;;;;;;4914924;29;1271;-64
2021/12/04 08:26:10;;;;;;;;;;;;;;;;;;4929245;29;858;-64
2021/12/04 08:28:35;;;;;;;;;;;;;;;;;;4914079;29;964;-64
2021/12/04 08:31:01;;;;;;;;;;;;;;;;;;4914603;29;834;-64
2021/12/04 08:33:28;;;;;;;;;;;;;;;;;;4914429;29;791;-64
2021/12/04 08:35:53;;;;;;;;;;;;;;;;;;4914611;29;1906;-64
2021/12/04 08:38:19;;;;;;;;;;;;;;;;;;4912829;29;957;-64
2021/12/04 08:40:44;;;;;;;;;;;;;;;;;;4915094;29;873;-61
2021/12/04 08:43:11;;;;;;;;;;;;;;;;;;4914170;29;882;-61
2021/12/04 08:45:37;;;;;;;;;;;;;;;;;;4912537;29;912;-61
2021/12/04 08:48:02;;;;;;;;;;;;;;;;;;4914285;29;955;-61
2021/12/04 08:50:28;;;;;;;;;;;;;;;;;;4913942;29;892;-62
2021/12/04 08:52:55;;;;;;;;;;;;;;;;;;4912960;29;1521;-61
2021/12/04 08:55:21;;;;;;;;;;;;;;;;;;4914255;29;1891;-61
2021/12/04 08:57:46;;;;;;;;;;;;;;;;;;4913507;29;882;-62
2021/12/04 09:00:17;;;;;;;;;;;;;;;;;;4914875;29;758;-61
2021/12/04 09:02:43;;;;;;;;;;;;;;;;;;4914804;29;889;-61
2021/12/04 09:05:09;;;;;;;;;;;;;;;;;;4914771;29;853;-61
2021/12/04 09:07:34;;;;;;;;;;;;;;;;;;4928580;29;1105;-61
2021/12/04 09:09:59;;;;;;;;;;;;;;;;;;4914691;29;1043;-61
2021/12/04 09:12:26;;;;;;;;;;;;;;;;;;4913807;29;1103;-62
2021/12/04 09:14:52;;;;;;;;;;;;;;;;;;4914860;29;1899;-61
2021/12/04 09:17:18;;;;;;;;;;;;;;;;;;4914887;29;1290;-61
2021/12/04 09:19:44;;;;;;;;;;;;;;;;;;4914743;29;810;-61
2021/12/04 09:22:15;;;;;;;;;;;;;;;;;;4914689;29;885;-61
2021/12/04 09:24:43;;;;;;;;;;;;;;;;;;4913051;29;920;-62
2021/12/04 09:35:59;;;;;;;;;;;;;;;;;;4914620;29;1965;-62
2021/12/04 10:02:13;;;;;;;;;;;;;;;;;;4914905;29;864;-61
2021/12/04 10:21:31;;;;;;;;;;;;;;;;;;4913562;29;829;-61
2021/12/04 10:34:40;;;;;;;;;;;;;;;;;;4913097;29;1898;-60
2021/12/04 10:37:07;;;;;;;;;;;;;;;;;;4913398;29;925;-61
2021/12/04 10:39:32;;;;;;;;;;;;;;;;;;4913185;29;907;-61
2021/12/04 10:41:59;;;;;;;;;;;;;;;;;;4912694;29;577;-61
2021/12/04 10:44:25;;;;;;;;;;;;;;;;;;4910988;29;822;-61
2021/12/04 10:46:51;;;;;;;;;;;;;;;;;;4912401;29;814;-62
2021/12/04 10:49:27;;;;;;;;;;;;;;;;;;4913080;29;889;-61
2021/12/04 10:52:02;;;;;;;;;;;;;;;;;;4912636;29;1001;-61
2021/12/04 10:54:32;;;;;;;;;;;;;;;;;;4912544;29;1950;-61
2021/12/04 10:58:01;;;;;;;;;;;;;;;;;;4912303;29;932;-59
2021/12/04 11:00:11;;;;;;;;;;;;;;;;;;4915923;28;1626;-60
2021/12/04 11:02:40;;;;;;;;;;;;;;;;;;4912743;29;862;-60
2021/12/04 11:05:38;;;;;;;;;;;;;;;;;;4912770;29;863;-60
2021/12/04 11:19:51;;;;;;;;;;;;;;;;;;4912872;29;676;-60
2021/12/04 11:27:52;;;;;;;;;;;;;;;;;;4912754;29;767;-60
2021/12/04 11:36:20;;;;;;;;;;;;;;;;;;4912638;29;1911;-60
2021/12/04 11:43:50;;;;;;;;;;;;;;;;;;4911802;29;719;-60
2021/12/04 11:46:22;;;;;;;;;;;;;;;;;;4912225;29;830;-60
2021/12/04 11:48:47;;;;;;;;;;;;;;;;;;4912643;29;842;-60
2021/12/04 11:51:12;;;;;;;;;;;;;;;;;;4912099;29;838;-60
2021/12/04 11:53:38;;;;;;;;;;;;;;;;;;4911564;29;869;-60
2021/12/04 11:56:03;;;;;;;;;;;;;;;;;;4911702;29;1974;-60
2021/12/04 11:58:33;;;;;;;;;;;;;;;;;;4912053;29;778;-60
2021/12/04 12:01:01;;;;;;;;;;;;;;;;;;4911873;29;825;-60
2021/12/04 12:03:27;;;;;;;;;;;;;;;;;;4912040;29;867;-60
2021/12/04 12:05:56;;;;;;;;;;;;;;;;;;4925980;28;975;-60
2021/12/04 12:08:23;;;;;;;;;;;;;;;;;;4911583;29;1107;-61
2021/12/04 12:10:51;;;;;;;;;;;;;;;;;;4911708;29;899;-60
2021/12/04 12:13:44;;;;;;;;;;;;;;;;;;4911786;29;854;-60
2021/12/04 12:16:16;;;;;;;;;;;;;;;;;;4910586;28;1986;-60
2021/12/04 12:18:51;;;;;;;;;;;;;;;;;;4911269;29;932;-60
2021/12/04 12:21:21;;;;;;;;;;;;;;;;;;4911644;29;938;-60
2021/12/04 12:24:11;;;;;;;;;;;;;;;;;;4911089;29;877;-60
2021/12/04 12:26:49;;;;;;;;;;;;;;;;;;4910885;29;1420;-60
2021/12/04 12:32:33;;;;;;;;;;;;;;;;;;4912174;29;632;-60
2021/12/04 12:36:02;;;;;;;;;;;;;;;;;;4910878;29;1899;-60
2021/12/04 12:37:51;;;;;;;;;;;;;;;;;;4911477;29;908;-60
2021/12/04 12:40:19;;;;;;;;;;;;;;;;;;4911751;29;888;-60
2021/12/04 12:42:44;;;;;;;;;;;;;;;;;;4911222;29;822;-60
2021/12/04 12:45:25;;;;;;;;;;;;;;;;;;4925952;29;1011;-60
2021/12/04 12:47:53;;;;;;;;;;;;;;;;;;4912302;29;994;-59
2021/12/04 12:50:38;;;;;;;;;;;;;;;;;;4914791;29;806;-59
2021/12/04 12:53:17;;;;;;;;;;;;;;;;;;4914478;29;844;-59
2021/12/04 12:55:44;;;;;;;;;;;;;;;;;;4914214;29;1958;-60
2021/12/04 12:58:12;;;;;;;;;;;;;;;;;;4914939;29;743;-59
2021/12/04 13:14:08;;;;;;;;;;;;;;;;;;4914420;29;984;-59
2021/12/04 13:16:33;;;;;;;;;;;;;;;;;;4914358;29;814;-59
2021/12/04 13:19:01;;;;;;;;;;;;;;;;;;4914328;29;814;-59
2021/12/04 13:21:27;;;;;;;;;;;;;;;;;;4914223;29;892;-59
2021/12/04 13:23:53;;;;;;;;;;;;;;;;;;4911169;29;1260;-59
2021/12/04 13:26:19;;;;;;;;;;;;;;;;;;4913960;29;1165;-60
2021/12/04 13:28:49;;;;;;;;;;;;;;;;;;4928750;29;908;-59
2021/12/04 13:31:16;;;;;;;;;;;;;;;;;;4914194;29;992;-60
2021/12/04 13:33:45;;;;;;;;;;;;;;;;;;4913312;29;905;-59
2021/12/04 13:36:30;;;;;;;;;;;;;;;;;;4928017;29;1911;-59
2021/12/04 13:38:56;;;;;;;;;;;;;;;;;;4913310;29;1243;-59
2021/12/04 13:41:21;;;;;;;;;;;;;;;;;;4913589;29;832;-59
2021/12/04 13:43:55;;;;;;;;;;;;;;;;;;4913313;29;1145;-59
2021/12/04 13:46:20;;;;;;;;;;;;;;;;;;4928234;29;856;-59
2021/12/04 13:48:46;;;;;;;;;;;;;;;;;;4928060;29;1070;-60
2021/12/04 13:51:11;;;;;;;;;;;;;;;;;;4913431;29;837;-59
2021/12/04 13:53:38;;;;;;;;;;;;;;;;;;4927483;29;932;-59
2021/12/04 13:56:08;;;;;;;;;;;;;;;;;;4913358;29;1984;-59
2021/12/04 13:58:42;;;;;;;;;;;;;;;;;;4913188;29;838;-59
2021/12/04 14:01:07;;;;;;;;;;;;;;;;;;4928033;29;880;-59
2021/12/04 14:03:33;;;;;;;;;;;;;;;;;;4913485;29;918;-59
2021/12/04 14:05:58;;;;;;;;;;;;;;;;;;4913747;29;839;-59
2021/12/04 14:08:23;;;;;;;;;;;;;;;;;;4913409;29;1186;-59
2021/12/04 14:10:49;;;;;;;;;;;;;;;;;;4912866;29;790;-59
2021/12/04 14:13:25;;;;;;;;;;;;;;;;;;4913843;29;813;-59
2021/12/04 14:15:54;;;;;;;;;;;;;;;;;;4913400;29;1958;-58
2021/12/04 14:18:22;;;;;;;;;;;;;;;;;;4927438;29;862;-59
2021/12/04 14:20:49;;;;;;;;;;;;;;;;;;4912822;29;925;-59
2021/12/04 14:23:14;;;;;;;;;;;;;;;;;;4913041;29;884;-59
2021/12/04 14:25:44;;;;;;;;;;;;;;;;;;4912678;29;874;-59
2021/12/04 14:28:14;;;;;;;;;;;;;;;;;;4912928;29;908;-60
2021/12/04 14:30:44;;;;;;;;;;;;;;;;;;4913270;29;889;-59
2021/12/04 14:33:09;;;;;;;;;;;;;;;;;;4911867;29;1687;-59
2021/12/04 14:35:36;;;;;;;;;;;;;;;;;;4912847;29;1898;-59
2021/12/04 14:38:02;;;;;;;;;;;;;;;;;;4912927;29;872;-59
2021/12/04 14:40:32;;;;;;;;;;;;;;;;;;4912797;29;822;-59
2021/12/04 14:42:57;;;;;;;;;;;;;;;;;;4913165;29;826;-59
2021/12/04 14:45:25;;;;;;;;;;;;;;;;;;4912032;29;2082;-59
2021/12/04 14:47:55;;;;;;;;;;;;;;;;;;4913131;29;834;-59
2021/12/04 14:50:22;;;;;;;;;;;;;;;;;;4912223;29;1184;-59
2021/12/04 14:52:48;;;;;;;;;;;;;;;;;;4913173;29;917;-59
2021/12/04 14:55:21;;;;;;;;;;;;;;;;;;4911720;29;1961;-60
2021/12/04 14:57:47;;;;;;;;;;;;;;;;;;4912863;29;842;-60
2021/12/04 15:00:14;;;;;;;;;;;;;;;;;;4927357;29;1279;-60
2021/12/04 15:02:40;;;;;;;;;;;;;;;;;;4912410;29;763;-60
2021/12/04 15:05:06;;;;;;;;;;;;;;;;;;4911070;29;1245;-60
2021/12/04 15:07:34;;;;;;;;;;;;;;;;;;4911142;29;1615;-60
2021/12/04 15:10:02;;;;;;;;;;;;;;;;;;4911238;29;1237;-59
2021/12/04 15:12:32;;;;;;;;;;;;;;;;;;4912232;29;910;-60
2021/12/04 15:14:59;;;;;;;;;;;;;;;;;;4912115;29;1915;-60
2021/12/04 15:17:25;;;;;;;;;;;;;;;;;;4911999;29;814;-61
2021/12/04 15:19:53;;;;;;;;;;;;;;;;;;4912214;29;783;-60
2021/12/04 15:22:33;;;;;;;;;;;;;;;;;;4911182;29;847;-61
2021/12/04 15:24:58;;;;;;;;;;;;;;;;;;4912596;29;822;-59
2021/12/04 15:27:27;;;;;;;;;;;;;;;;;;4912246;29;884;-59
2021/12/04 15:29:53;;;;;;;;;;;;;;;;;;4912011;29;1059;-60
2021/12/04 15:32:21;;;;;;;;;;;;;;;;;;4912738;29;873;-59
2021/12/04 15:34:59;;;;;;;;;;;;;;;;;;4912564;29;1903;-60
2021/12/04 15:37:27;;;;;;;;;;;;;;;;;;4911903;29;908;-59
2021/12/04 15:39:53;;;;;;;;;;;;;;;;;;4912339;29;774;-59
2021/12/04 15:45:23;;;;;;;;;;;;;;;;;;4912121;29;825;-60
2021/12/04 15:48:06;;;;;;;;;;;;;;;;;;4912345;29;883;-59
2021/12/04 15:53:10;;;;;;;;;;;;;;;;;;4911719;29;857;-59
2021/12/04 15:55:47;;;;;;;;;;;;;;;;;;4911432;29;1902;-59
2021/12/04 15:58:14;;;;;;;;;;;;;;;;;;4910127;29;846;-59
2021/12/04 16:00:41;;;;;;;;;;;;;;;;;;4911680;29;818;-59
2021/12/04 16:03:10;;;;;;;;;;;;;;;;;;4911583;29;799;-58
2021/12/04 16:05:38;;;;;;;;;;;;;;;;;;4911486;29;1617;-59
2021/12/04 16:08:13;;;;;;;;;;;;;;;;;;4911038;29;1234;-60
2021/12/04 16:10:40;;;;;;;;;;;;;;;;;;4911706;29;926;-59
2021/12/04 16:13:08;;;;;;;;;;;;;;;;;;4911617;29;798;-59
2021/12/04 16:15:34;;;;;;;;;;;;;;;;;;4911378;29;1970;-60
2021/12/04 16:17:59;;;;;;;;;;;;;;;;;;4911851;29;830;-59
2021/12/04 16:20:24;;;;;;;;;;;;;;;;;;4911817;29;897;-59
2021/12/04 16:22:50;;;;;;;;;;;;;;;;;;4913068;29;762;-59
2021/12/04 16:25:21;;;;;;;;;;;;;;;;;;4915530;29;849;-59
2021/12/04 16:37:47;;;;;;;;;;;;;;;;;;4915075;29;762;-59
2021/12/04 16:40:21;;;;;;;;;;;;;;;;;;4914969;29;1668;-59
2021/12/04 16:43:01;;;;;;;;;;;;;;;;;;4913527;29;741;-59
2021/12/04 16:45:26;;;;;;;;;;;;;;;;;;4928396;29;858;-59
2021/12/04 16:47:54;;;;;;;;;;;;;;;;;;4914731;29;1823;-59
2021/12/04 16:50:25;;;;;;;;;;;;;;;;;;4914725;29;870;-58
2021/12/04 16:58:13;;;;;;;;;;;;;;;;;;4914236;29;809;-59
2021/12/04 17:00:40;;;;;;;;;;;;;;;;;;4914105;29;837;-59
2021/12/04 17:03:06;;;;;;;;;;;;;;;;;;4914125;29;802;-59
2021/12/04 17:05:33;;;;;;;;;;;;;;;;;;4914156;29;826;-59
2021/12/04 17:07:58;;;;;;;;;;;;;;;;;;4927900;29;1138;-60
2021/12/04 17:10:25;;;;;;;;;;;;;;;;;;4912887;29;1492;-59
2021/12/04 17:12:50;;;;;;;;;;;;;;;;;;4914804;29;711;-59
2021/12/04 17:15:16;;;;;;;;;;;;;;;;;;4914062;28;2028;-59
2021/12/04 17:17:44;;;;;;;;;;;;;;;;;;4914438;29;815;-68
2021/12/04 17:20:11;;;;;;;;;;;;;;;;;;4914299;29;873;-68
2021/12/04 17:22:36;;;;;;;;;;;;;;;;;;4913813;29;854;-68
2021/12/04 17:25:03;;;;;;;;;;;;;;;;;;4912763;29;1203;-60
2021/12/04 17:27:28;;;;;;;;;;;;;;;;;;4913836;29;830;-59
2021/12/04 17:29:53;;;;;;;;;;;;;;;;;;4914047;29;834;-60
2021/12/04 17:32:20;;;;;;;;;;;;;;;;;;4914334;29;805;-59
2021/12/04 17:34:47;;;;;;;;;;;;;;;;;;4913724;29;1968;-59
2021/12/04 17:37:12;;;;;;;;;;;;;;;;;;4912753;29;675;-59
2021/12/04 17:39:38;;;;;;;;;;;;;;;;;;4914225;29;858;-59
2021/12/04 17:42:03;;;;;;;;;;;;;;;;;;4928178;29;909;-60
2021/12/04 17:44:28;;;;;;;;;;;;;;;;;;4913759;29;932;-59
2021/12/04 17:46:55;;;;;;;;;;;;;;;;;;4914141;29;830;-59
2021/12/04 17:49:23;;;;;;;;;;;;;;;;;;4914084;29;834;-60
2021/12/04 17:51:48;;;;;;;;;;;;;;;;;;4913800;29;1172;-59
2021/12/04 17:54:14;;;;;;;;;;;;;;;;;;4928663;29;869;-60
2021/12/04 17:56:40;;;;;;;;;;;;;;;;;;4912344;29;1899;-59
2021/12/04 17:59:06;;;;;;;;;;;;;;;;;;4913465;29;824;-59
2021/12/04 18:01:36;;;;;;;;;;;;;;;;;;4913586;29;1031;-59
2021/12/04 18:04:03;;;;;;;;;;;;;;;;;;4912178;29;831;-59
2021/12/04 18:06:28;;;;;;;;;;;;;;;;;;4913364;29;1193;-60
2021/12/04 18:08:54;;;;;;;;;;;;;;;;;;4913765;29;842;-59
2021/12/04 18:11:25;;;;;;;;;;;;;;;;;;4913763;29;810;-59
2021/12/04 18:13:52;;;;;;;;;;;;;;;;;;4913522;29;925;-59
2021/12/04 18:16:20;;;;;;;;;;;;;;;;;;4913647;29;1976;-59
2021/12/04 18:18:45;;;;;;;;;;;;;;;;;;4914070;29;1027;-59
2021/12/04 18:21:10;;;;;;;;;;;;;;;;;;4913672;29;779;-59
2021/12/04 18:23:36;;;;;;;;;;;;;;;;;;4913471;28;1051;-59
2021/12/04 18:26:02;;;;;;;;;;;;;;;;;;4913685;29;898;-59
2021/12/04 18:28:29;;;;;;;;;;;;;;;;;;4914049;29;763;-59
2021/12/04 18:30:55;;;;;;;;;;;;;;;;;;4913961;29;876;-59
2021/12/04 18:33:22;;;;;;;;;;;;;;;;;;4913147;29;878;-59
2021/12/04 18:35:47;;;;;;;;;;;;;;;;;;4913957;29;1911;-59
2021/12/04 18:38:12;;;;;;;;;;;;;;;;;;4913352;29;968;-58
2021/12/04 18:40:38;;;;;;;;;;;;;;;;;;4913227;29;973;-59
2021/12/04 18:43:05;;;;;;;;;;;;;;;;;;4911338;29;1496;-59
2021/12/04 18:45:30;;;;;;;;;;;;;;;;;;4911830;29;968;-60
2021/12/04 18:47:59;;;;;;;;;;;;;;;;;;4913119;28;901;-59
2021/12/04 18:50:25;;;;;;;;;;;;;;;;;;4912933;29;822;-59
2021/12/04 18:52:52;;;;;;;;;;;;;;;;;;4913368;29;914;-59
2021/12/04 18:55:18;;;;;;;;;;;;;;;;;;4913380;29;1898;-59
2021/12/04 18:57:43;;;;;;;;;;;;;;;;;;4913198;29;968;-59
2021/12/04 19:00:11;;;;;;;;;;;;;;;;;;4913028;29;842;-59
2021/12/04 19:02:37;;;;;;;;;;;;;;;;;;4913366;29;817;-59
2021/12/04 19:05:03;;;;;;;;;;;;;;;;;;4913531;29;827;-59
2021/12/04 19:07:28;;;;;;;;;;;;;;;;;;4911247;29;1332;-59
2021/12/04 19:09:53;;;;;;;;;;;;;;;;;;4912803;29;1020;-58
2021/12/04 19:12:19;;;;;;;;;;;;;;;;;;4911377;29;862;-59
2021/12/04 19:14:45;;;;;;;;;;;;;;;;;;4912953;29;1903;-59
2021/12/04 19:17:15;;;;;;;;;;;;;;;;;;4912471;29;842;-59
2021/12/04 19:19:40;;;;;;;;;;;;;;;;;;4912420;29;982;-59
2021/12/04 19:22:06;;;;;;;;;;;;;;;;;;4912489;29;920;-59
2021/12/04 19:24:33;;;;;;;;;;;;;;;;;;4912308;29;1012;-59
2021/12/04 19:27:01;;;;;;;;;;;;;;;;;;4912319;29;940;-59
2021/12/04 19:29:28;;;;;;;;;;;;;;;;;;4912482;29;881;-59
2021/12/04 19:31:59;;;;;;;;;;;;;;;;;;4911933;29;865;-58
2021/12/04 19:50:43;;;;;;;;;;;;;;;;;;4912349;29;645;-60
2021/12/04 19:55:37;;;;;;;;;;;;;;;;;;4912467;29;1964;-60
2021/12/04 19:58:03;;;;;;;;;;;;;;;;;;4915204;29;954;-60
2021/12/04 20:00:34;;;;;;;;;;;;;;;;;;4915710;29;1059;-60
2021/12/04 20:08:50;;;;;;;;;;;;;;;;;;4915197;29;1355;-60
2021/12/04 20:13:58;;;;;;;;;;;;;;;;;;4915549;29;804;-60
2021/12/04 20:16:25;;;;;;;;;;;;;;;;;;4915107;29;1910;-59
2021/12/04 20:18:52;;;;;;;;;;;;;;;;;;4915138;29;936;-60
2021/12/04 20:21:19;;;;;;;;;;;;;;;;;;4914954;29;882;-59
2021/12/04 20:23:46;;;;;;;;;;;;;;;;;;4914863;29;888;-60
2021/12/04 20:26:12;;;;;;;;;;;;;;;;;;4914669;29;822;-60
2021/12/04 20:29:00;;;;;;;;;;;;;;;;;;4914888;29;823;-60
2021/12/04 20:34:06;;;;;;;;;;;;;;;;;;4914814;29;873;-60
2021/12/04 21:49:52;;;;;;;;;;;;;;;;;;4914183;29;664;-60
2021/12/04 21:52:18;;;;;;;;;;;;;;;;;;4913780;29;837;-59
2021/12/04 21:54:45;;;;;;;;;;;;;;;;;;4928048;29;1910;-60
2021/12/04 21:57:38;;;;;;;;;;;;;;;;;;4914196;29;836;-58
2021/12/04 22:11:01;;;;;;;;;;;;;;;;;;4913232;29;684;-60
2021/12/04 22:13:34;;;;;;;;;;;;;;;;;;4913298;29;864;-59
2021/12/04 22:16:18;;;;;;;;;;;;;;;;;;4912075;29;1918;-59
2021/12/04 22:19:19;;;;;;;;;;;;;;;;;;4913458;29;845;-60
2021/12/04 22:59:48;;;;;;;;;;;;;;;;;;4913203;29;633;-59
2021/12/04 23:02:17;;;;;;;;;;;;;;;;;;4913548;29;893;-60
2021/12/04 23:13:07;;;;;;;;;;;;;;;;;;4912875;29;676;-59
2021/12/04 23:15:59;;;;;;;;;;;;;;;;;;4912252;29;1972;-60